CheckWX is a tool to help pilots better visualize weather data.  It is not intended as a substitute for an official pre-flight weather briefing.

04:42:25 UTC

UKDR TAF
Kryvyi Rih International Airport
Kryvyi Rih, Ukraine
TAF UKDR 222310Z 2300/2324 32006MPS 9999 BKN012 TX07/2312Z TNM00/2303Z TEMPO 2300/2306 33007G12MPS BKN012 SCT020CB BECMG 2306/2308 34009G15MPS BECMG 2317/2319 35005MPS

Mar-23@
00:00 UTC

Mar-23 @ 00:00 UTC

Mar-23@
06:00 UTC

Mar-23 @ 06:00 UTC

TAF UKDR 222310Z 2300/2324 32006MPS 9999 BKN012 TX07/2312Z TNM00/2303Z
Wind
  • 320° at 12 KTS
Cloud Levels
  • Broken at 1,200' AGL

Mar-23@
00:00 UTC

Mar-23 @ 00:00 UTC

Mar-23@
06:00 UTC

Mar-23 @ 06:00 UTC

TEMPO 2300/2306 33007G12MPS BKN012 SCT020CB

Temporary

Temporary Changes expected for less than half the time period

Wind
  • 330° at 14 KTS
  • {Gusting to 23 KTS
Cloud Levels
  • Broken at 1,200' AGL
  • Scattered at 2,000' AGL

Mar-23@
06:00 UTC

Mar-23 @ 06:00 UTC

Mar-23@
17:00 UTC

Mar-23 @ 17:00 UTC

BECMG 2306/2308 34009G15MPS

Becoming

Becoming Conditions expected by Sat, Mar 23, 2019 @ 08:00 UTC

Wind
  • 340° at 17 KTS
  • {Gusting to 29 KTS
Cloud Levels
  • Broken at 1,200' AGL

Mar-23@
17:00 UTC

Mar-23 @ 17:00 UTC

Mar-24@
00:00 UTC

Mar-24 @ 00:00 UTC

BECMG 2317/2319 35005MPS

Becoming

Becoming Conditions expected by Sat, Mar 23, 2019 @ 19:00 UTC

Wind
  • 350° at 10 KTS
Cloud Levels
  • Broken at 1,200' AGL